sensor_id;sensor_type;location;lat;lon;timestamp;temperature;humidity
18229;DHT22;9239;50.932;3.142;2023-11-18T00:01:04;7.40;99.90
18229;DHT22;9239;50.932;3.142;2023-11-18T00:03:32;7.40;99.90
18229;DHT22;9239;50.932;3.142;2023-11-18T00:06:00;7.40;99.90
18229;DHT22;9239;50.932;3.142;2023-11-18T00:08:27;7.40;99.90
18229;DHT22;9239;50.932;3.142;2023-11-18T00:10:53;7.40;99.90
18229;DHT22;9239;50.932;3.142;2023-11-18T00:13:20;7.40;99.90
18229;DHT22;9239;50.932;3.142;2023-11-18T00:15:47;7.30;99.90
18229;DHT22;9239;50.932;3.142;2023-11-18T00:18:14;7.30;99.90
18229;DHT22;9239;50.932;3.142;2023-11-18T00:20:41;7.30;99.90
18229;DHT22;9239;50.932;3.142;2023-11-18T00:23:09;7.30;99.90
18229;DHT22;9239;50.932;3.142;2023-11-18T00:25:36;7.30;99.90
18229;DHT22;9239;50.932;3.142;2023-11-18T00:28:05;7.30;99.90
18229;DHT22;9239;50.932;3.142;2023-11-18T00:30:32;7.40;99.90
18229;DHT22;9239;50.932;3.142;2023-11-18T00:32:59;7.40;99.90
18229;DHT22;9239;50.932;3.142;2023-11-18T00:35:26;7.40;99.90
18229;DHT22;9239;50.932;3.142;2023-11-18T00:37:55;7.30;99.90
18229;DHT22;9239;50.932;3.142;2023-11-18T00:40:24;7.40;99.90
18229;DHT22;9239;50.932;3.142;2023-11-18T00:42:50;7.40;99.90
18229;DHT22;9239;50.932;3.142;2023-11-18T00:45:18;7.40;99.90
18229;DHT22;9239;50.932;3.142;2023-11-18T00:47:44;7.40;99.90
18229;DHT22;9239;50.932;3.142;2023-11-18T00:50:11;7.40;99.90
18229;DHT22;9239;50.932;3.142;2023-11-18T00:52:39;7.40;99.90
18229;DHT22;9239;50.932;3.142;2023-11-18T00:55:07;7.50;99.90
18229;DHT22;9239;50.932;3.142;2023-11-18T00:57:37;7.50;99.90
18229;DHT22;9239;50.932;3.142;2023-11-18T01:00:07;7.50;99.90
18229;DHT22;9239;50.932;3.142;2023-11-18T01:02:35;7.50;99.90
18229;DHT22;9239;50.932;3.142;2023-11-18T01:05:03;7.60;99.90
18229;DHT22;9239;50.932;3.142;2023-11-18T01:07:30;7.60;99.90
18229;DHT22;9239;50.932;3.142;2023-11-18T01:09:57;7.60;99.90
18229;DHT22;9239;50.932;3.142;2023-11-18T01:12:24;7.60;99.90
18229;DHT22;9239;50.932;3.142;2023-11-18T01:14:52;7.60;99.90
18229;DHT22;9239;50.932;3.142;2023-11-18T01:17:19;7.60;99.90
18229;DHT22;9239;50.932;3.142;2023-11-18T01:19:47;7.60;99.90
18229;DHT22;9239;50.932;3.142;2023-11-18T01:22:14;7.60;99.90
18229;DHT22;9239;50.932;3.142;2023-11-18T01:24:41;7.60;99.90
18229;DHT22;9239;50.932;3.142;2023-11-18T01:27:08;7.60;99.90
18229;DHT22;9239;50.932;3.142;2023-11-18T01:29:36;7.60;99.90
18229;DHT22;9239;50.932;3.142;2023-11-18T01:32:06;7.60;99.90
18229;DHT22;9239;50.932;3.142;2023-11-18T01:34:34;7.60;99.90
18229;DHT22;9239;50.932;3.142;2023-11-18T01:37:01;7.60;99.90
18229;DHT22;9239;50.932;3.142;2023-11-18T01:39:30;7.60;99.90
18229;DHT22;9239;50.932;3.142;2023-11-18T01:41:57;7.60;99.90
18229;DHT22;9239;50.932;3.142;2023-11-18T01:44:24;7.60;99.90
18229;DHT22;9239;50.932;3.142;2023-11-18T01:46:53;7.60;99.90
18229;DHT22;9239;50.932;3.142;2023-11-18T01:49:22;7.60;99.90
18229;DHT22;9239;50.932;3.142;2023-11-18T01:51:50;7.60;99.90
18229;DHT22;9239;50.932;3.142;2023-11-18T01:54:18;7.70;99.90
18229;DHT22;9239;50.932;3.142;2023-11-18T01:56:47;7.70;99.90
18229;DHT22;9239;50.932;3.142;2023-11-18T01:59:14;7.70;99.90
18229;DHT22;9239;50.932;3.142;2023-11-18T02:01:46;7.70;99.90
18229;DHT22;9239;50.932;3.142;2023-11-18T02:04:13;7.70;99.90
18229;DHT22;9239;50.932;3.142;2023-11-18T02:06:42;7.70;99.90
18229;DHT22;9239;50.932;3.142;2023-11-18T02:09:10;7.70;99.90
18229;DHT22;9239;50.932;3.142;2023-11-18T02:11:42;7.70;99.90
18229;DHT22;9239;50.932;3.142;2023-11-18T02:14:14;7.70;99.90
18229;DHT22;9239;50.932;3.142;2023-11-18T02:16:43;7.70;99.90
18229;DHT22;9239;50.932;3.142;2023-11-18T02:19:19;7.80;99.90
18229;DHT22;9239;50.932;3.142;2023-11-18T02:21:48;7.80;99.90
18229;DHT22;9239;50.932;3.142;2023-11-18T02:24:26;7.80;99.90
18229;DHT22;9239;50.932;3.142;2023-11-18T02:26:57;7.80;99.90
18229;DHT22;9239;50.932;3.142;2023-11-18T02:29:25;7.80;99.90
18229;DHT22;9239;50.932;3.142;2023-11-18T02:31:54;7.80;99.90
18229;DHT22;9239;50.932;3.142;2023-11-18T02:34:27;7.90;99.90
18229;DHT22;9239;50.932;3.142;2023-11-18T02:36:57;7.90;99.90
18229;DHT22;9239;50.932;3.142;2023-11-18T02:39:31;7.90;99.90
18229;DHT22;9239;50.932;3.142;2023-11-18T02:42:02;7.90;99.90
18229;DHT22;9239;50.932;3.142;2023-11-18T02:44:30;7.90;99.90
18229;DHT22;9239;50.932;3.142;2023-11-18T02:46:58;7.90;99.90
18229;DHT22;9239;50.932;3.142;2023-11-18T02:49:26;7.90;99.90
18229;DHT22;9239;50.932;3.142;2023-11-18T02:51:53;8.00;99.90
18229;DHT22;9239;50.932;3.142;2023-11-18T02:54:20;8.00;99.90
18229;DHT22;9239;50.932;3.142;2023-11-18T02:56:47;8.00;99.90
18229;DHT22;9239;50.932;3.142;2023-11-18T02:59:16;8.00;99.90
18229;DHT22;9239;50.932;3.142;2023-11-18T03:01:43;8.00;99.90
18229;DHT22;9239;50.932;3.142;2023-11-18T03:04:10;8.00;99.90
18229;DHT22;9239;50.932;3.142;2023-11-18T03:06:36;8.00;99.90
18229;DHT22;9239;50.932;3.142;2023-11-18T03:09:04;8.10;99.90
18229;DHT22;9239;50.932;3.142;2023-11-18T03:11:33;8.10;99.90
18229;DHT22;9239;50.932;3.142;2023-11-18T03:13:59;8.10;99.90
18229;DHT22;9239;50.932;3.142;2023-11-18T03:16:28;8.20;99.90
18229;DHT22;9239;50.932;3.142;2023-11-18T03:18:55;8.10;99.90
18229;DHT22;9239;50.932;3.142;2023-11-18T03:21:23;8.10;99.90
18229;DHT22;9239;50.932;3.142;2023-11-18T03:23:51;8.10;99.90
18229;DHT22;9239;50.932;3.142;2023-11-18T03:26:19;8.10;99.90
18229;DHT22;9239;50.932;3.142;2023-11-18T03:28:46;8.10;99.90
18229;DHT22;9239;50.932;3.142;2023-11-18T03:31:13;8.10;99.90
18229;DHT22;9239;50.932;3.142;2023-11-18T03:33:43;8.10;99.90
18229;DHT22;9239;50.932;3.142;2023-11-18T03:36:10;8.10;99.90
18229;DHT22;9239;50.932;3.142;2023-11-18T03:38:38;8.10;99.90
18229;DHT22;9239;50.932;3.142;2023-11-18T03:41:05;8.10;99.90
18229;DHT22;9239;50.932;3.142;2023-11-18T03:43:33;8.10;99.90
18229;DHT22;9239;50.932;3.142;2023-11-18T03:46:00;8.10;99.90
18229;DHT22;9239;50.932;3.142;2023-11-18T03:48:27;8.10;99.90
18229;DHT22;9239;50.932;3.142;2023-11-18T03:50:55;8.10;99.90
18229;DHT22;9239;50.932;3.142;2023-11-18T03:53:22;8.10;99.90
18229;DHT22;9239;50.932;3.142;2023-11-18T03:55:49;8.10;99.90
18229;DHT22;9239;50.932;3.142;2023-11-18T03:58:17;8.10;99.90
18229;DHT22;9239;50.932;3.142;2023-11-18T04:00:44;8.10;99.90
18229;DHT22;9239;50.932;3.142;2023-11-18T04:03:11;8.10;99.90
18229;DHT22;9239;50.932;3.142;2023-11-18T04:05:37;8.10;99.90
18229;DHT22;9239;50.932;3.142;2023-11-18T04:08:06;8.10;99.90
18229;DHT22;9239;50.932;3.142;2023-11-18T04:10:33;8.10;99.90
18229;DHT22;9239;50.932;3.142;2023-11-18T04:13:00;8.10;99.90
18229;DHT22;9239;50.932;3.142;2023-11-18T04:15:27;8.10;99.90
18229;DHT22;9239;50.932;3.142;2023-11-18T04:17:54;8.20;99.90
18229;DHT22;9239;50.932;3.142;2023-11-18T04:20:21;8.10;99.90
18229;DHT22;9239;50.932;3.142;2023-11-18T04:22:48;8.10;99.90
18229;DHT22;9239;50.932;3.142;2023-11-18T04:25:17;8.20;99.90
18229;DHT22;9239;50.932;3.142;2023-11-18T04:27:44;8.10;99.90
18229;DHT22;9239;50.932;3.142;2023-11-18T04:30:11;8.10;99.90
18229;DHT22;9239;50.932;3.142;2023-11-18T04:32:38;8.20;99.90
18229;DHT22;9239;50.932;3.142;2023-11-18T04:35:08;8.20;99.90
18229;DHT22;9239;50.932;3.142;2023-11-18T04:37:37;8.20;99.90
18229;DHT22;9239;50.932;3.142;2023-11-18T04:40:08;8.20;99.90
18229;DHT22;9239;50.932;3.142;2023-11-18T04:42:38;8.20;99.90
18229;DHT22;9239;50.932;3.142;2023-11-18T04:45:05;8.20;99.90
18229;DHT22;9239;50.932;3.142;2023-11-18T04:47:35;8.20;99.90
18229;DHT22;9239;50.932;3.142;2023-11-18T04:50:02;8.30;99.90
18229;DHT22;9239;50.932;3.142;2023-11-18T04:52:30;8.30;99.90
18229;DHT22;9239;50.932;3.142;2023-11-18T04:54:58;8.30;99.90
18229;DHT22;9239;50.932;3.142;2023-11-18T04:57:25;8.30;99.90
18229;DHT22;9239;50.932;3.142;2023-11-18T04:59:53;8.20;99.90
18229;DHT22;9239;50.932;3.142;2023-11-18T05:02:20;8.30;99.90
18229;DHT22;9239;50.932;3.142;2023-11-18T05:04:48;8.30;99.90
18229;DHT22;9239;50.932;3.142;2023-11-18T05:07:15;8.30;99.90
18229;DHT22;9239;50.932;3.142;2023-11-18T05:09:43;8.30;99.90
18229;DHT22;9239;50.932;3.142;2023-11-18T05:12:09;8.30;99.90
18229;DHT22;9239;50.932;3.142;2023-11-18T05:14:36;8.30;99.90
18229;DHT22;9239;50.932;3.142;2023-11-18T05:17:05;8.20;99.90
18229;DHT22;9239;50.932;3.142;2023-11-18T05:19:32;8.20;99.90
18229;DHT22;9239;50.932;3.142;2023-11-18T05:21:59;8.30;99.90
18229;DHT22;9239;50.932;3.142;2023-11-18T05:24:26;8.30;99.90
18229;DHT22;9239;50.932;3.142;2023-11-18T05:26:53;8.30;99.90
18229;DHT22;9239;50.932;3.142;2023-11-18T05:29:21;8.30;99.90
18229;DHT22;9239;50.932;3.142;2023-11-18T05:31:51;8.30;99.90
18229;DHT22;9239;50.932;3.142;2023-11-18T05:34:19;8.30;99.90
18229;DHT22;9239;50.932;3.142;2023-11-18T05:36:46;8.30;99.90
18229;DHT22;9239;50.932;3.142;2023-11-18T05:39:14;8.30;99.90
18229;DHT22;9239;50.932;3.142;2023-11-18T05:41:41;8.30;99.90
18229;DHT22;9239;50.932;3.142;2023-11-18T05:44:11;8.30;99.90
18229;DHT22;9239;50.932;3.142;2023-11-18T05:46:43;8.40;99.90
18229;DHT22;9239;50.932;3.142;2023-11-18T05:49:12;8.40;99.90
18229;DHT22;9239;50.932;3.142;2023-11-18T05:51:40;8.40;99.90
18229;DHT22;9239;50.932;3.142;2023-11-18T05:54:07;8.40;99.90
18229;DHT22;9239;50.932;3.142;2023-11-18T05:56:35;8.50;99.90
18229;DHT22;9239;50.932;3.142;2023-11-18T05:59:02;8.40;99.90
18229;DHT22;9239;50.932;3.142;2023-11-18T06:01:29;8.50;99.90
18229;DHT22;9239;50.932;3.142;2023-11-18T06:03:57;8.40;99.90
18229;DHT22;9239;50.932;3.142;2023-11-18T06:06:24;8.50;99.90
18229;DHT22;9239;50.932;3.142;2023-11-18T06:08:53;8.50;99.90
18229;DHT22;9239;50.932;3.142;2023-11-18T06:11:20;8.50;99.90
18229;DHT22;9239;50.932;3.142;2023-11-18T06:13:49;8.50;99.90
18229;DHT22;9239;50.932;3.142;2023-11-18T06:16:17;8.60;99.90
18229;DHT22;9239;50.932;3.142;2023-11-18T06:18:46;8.60;99.90
18229;DHT22;9239;50.932;3.142;2023-11-18T06:21:14;8.50;99.90
18229;DHT22;9239;50.932;3.142;2023-11-18T06:23:41;8.50;99.90
18229;DHT22;9239;50.932;3.142;2023-11-18T06:26:09;8.50;99.90
18229;DHT22;9239;50.932;3.142;2023-11-18T06:28:38;8.50;99.90
18229;DHT22;9239;50.932;3.142;2023-11-18T06:31:05;8.50;99.90
18229;DHT22;9239;50.932;3.142;2023-11-18T06:33:38;8.50;99.90
18229;DHT22;9239;50.932;3.142;2023-11-18T06:36:08;8.50;99.90
18229;DHT22;9239;50.932;3.142;2023-11-18T06:38:36;8.50;99.90
18229;DHT22;9239;50.932;3.142;2023-11-18T06:41:04;8.50;99.90
18229;DHT22;9239;50.932;3.142;2023-11-18T06:43:36;8.60;99.90
18229;DHT22;9239;50.932;3.142;2023-11-18T06:46:20;8.60;99.90
18229;DHT22;9239;50.932;3.142;2023-11-18T06:48:48;8.60;99.90
18229;DHT22;9239;50.932;3.142;2023-11-18T06:51:15;8.50;99.90
18229;DHT22;9239;50.932;3.142;2023-11-18T06:53:42;8.60;99.90
18229;DHT22;9239;50.932;3.142;2023-11-18T06:56:09;8.60;99.90
18229;DHT22;9239;50.932;3.142;2023-11-18T06:58:38;8.60;99.90
18229;DHT22;9239;50.932;3.142;2023-11-18T07:01:06;8.60;99.90
18229;DHT22;9239;50.932;3.142;2023-11-18T07:03:33;8.50;99.90
18229;DHT22;9239;50.932;3.142;2023-11-18T07:06:01;8.50;99.90
18229;DHT22;9239;50.932;3.142;2023-11-18T07:08:28;8.50;99.90
18229;DHT22;9239;50.932;3.142;2023-11-18T07:10:55;8.50;99.90
18229;DHT22;9239;50.932;3.142;2023-11-18T07:13:22;8.50;99.90
18229;DHT22;9239;50.932;3.142;2023-11-18T07:15:50;8.50;99.90
18229;DHT22;9239;50.932;3.142;2023-11-18T07:18:19;8.50;99.90
18229;DHT22;9239;50.932;3.142;2023-11-18T07:20:48;8.50;99.90
18229;DHT22;9239;50.932;3.142;2023-11-18T07:23:16;8.50;99.90
18229;DHT22;9239;50.932;3.142;2023-11-18T07:25:43;8.60;99.90
18229;DHT22;9239;50.932;3.142;2023-11-18T07:28:10;8.60;99.90
18229;DHT22;9239;50.932;3.142;2023-11-18T07:30:40;8.50;99.90
18229;DHT22;9239;50.932;3.142;2023-11-18T07:33:09;8.50;99.90
18229;DHT22;9239;50.932;3.142;2023-11-18T07:35:36;8.50;99.90
18229;DHT22;9239;50.932;3.142;2023-11-18T07:38:03;8.50;99.90
18229;DHT22;9239;50.932;3.142;2023-11-18T07:40:32;8.50;99.90
18229;DHT22;9239;50.932;3.142;2023-11-18T07:42:59;8.50;99.90
18229;DHT22;9239;50.932;3.142;2023-11-18T07:45:27;8.50;99.90
18229;DHT22;9239;50.932;3.142;2023-11-18T07:47:54;8.50;99.90
18229;DHT22;9239;50.932;3.142;2023-11-18T07:50:22;8.60;99.90
18229;DHT22;9239;50.932;3.142;2023-11-18T07:52:50;8.60;99.90
18229;DHT22;9239;50.932;3.142;2023-11-18T07:55:17;8.60;99.90
18229;DHT22;9239;50.932;3.142;2023-11-18T07:57:44;8.60;99.90
18229;DHT22;9239;50.932;3.142;2023-11-18T08:00:12;8.60;99.90
18229;DHT22;9239;50.932;3.142;2023-11-18T08:02:40;8.60;99.90
18229;DHT22;9239;50.932;3.142;2023-11-18T08:05:07;8.60;99.90
18229;DHT22;9239;50.932;3.142;2023-11-18T08:07:40;8.60;99.90
18229;DHT22;9239;50.932;3.142;2023-11-18T08:10:09;8.60;99.90
18229;DHT22;9239;50.932;3.142;2023-11-18T08:12:38;8.60;99.90
18229;DHT22;9239;50.932;3.142;2023-11-18T08:15:06;8.80;99.90
18229;DHT22;9239;50.932;3.142;2023-11-18T08:17:34;8.80;99.90
18229;DHT22;9239;50.932;3.142;2023-11-18T08:20:01;8.80;99.90
18229;DHT22;9239;50.932;3.142;2023-11-18T08:22:32;8.70;99.90
18229;DHT22;9239;50.932;3.142;2023-11-18T08:25:01;8.80;99.90
18229;DHT22;9239;50.932;3.142;2023-11-18T08:27:30;8.80;99.90
18229;DHT22;9239;50.932;3.142;2023-11-18T08:29:57;8.80;99.90
18229;DHT22;9239;50.932;3.142;2023-11-18T08:32:24;8.80;99.90
18229;DHT22;9239;50.932;3.142;2023-11-18T08:34:51;8.80;99.90
18229;DHT22;9239;50.932;3.142;2023-11-18T08:37:17;8.80;99.90
18229;DHT22;9239;50.932;3.142;2023-11-18T08:39:44;8.80;99.90
18229;DHT22;9239;50.932;3.142;2023-11-18T08:42:12;8.80;99.90
18229;DHT22;9239;50.932;3.142;2023-11-18T08:44:40;8.90;99.90
18229;DHT22;9239;50.932;3.142;2023-11-18T08:47:08;8.80;99.90
18229;DHT22;9239;50.932;3.142;2023-11-18T08:49:38;8.80;99.90
18229;DHT22;9239;50.932;3.142;2023-11-18T08:52:05;8.80;99.90
18229;DHT22;9239;50.932;3.142;2023-11-18T08:54:38;8.90;99.90
18229;DHT22;9239;50.932;3.142;2023-11-18T08:57:26;8.90;99.90
18229;DHT22;9239;50.932;3.142;2023-11-18T08:59:59;8.80;99.90
18229;DHT22;9239;50.932;3.142;2023-11-18T09:02:32;8.80;99.90
18229;DHT22;9239;50.932;3.142;2023-11-18T09:05:03;8.80;99.90
18229;DHT22;9239;50.932;3.142;2023-11-18T09:07:38;8.90;99.90
18229;DHT22;9239;50.932;3.142;2023-11-18T09:10:06;8.80;99.90
18229;DHT22;9239;50.932;3.142;2023-11-18T09:12:35;8.90;99.90
18229;DHT22;9239;50.932;3.142;2023-11-18T09:15:03;8.90;99.90
18229;DHT22;9239;50.932;3.142;2023-11-18T09:17:30;8.80;99.90
18229;DHT22;9239;50.932;3.142;2023-11-18T09:19:57;8.80;99.90
18229;DHT22;9239;50.932;3.142;2023-11-18T09:22:23;8.80;99.90
18229;DHT22;9239;50.932;3.142;2023-11-18T09:24:50;8.80;99.90
18229;DHT22;9239;50.932;3.142;2023-11-18T09:27:17;8.80;99.90
18229;DHT22;9239;50.932;3.142;2023-11-18T09:29:46;8.80;99.90
18229;DHT22;9239;50.932;3.142;2023-11-18T09:32:15;8.90;99.90
18229;DHT22;9239;50.932;3.142;2023-11-18T09:34:42;8.90;99.90
18229;DHT22;9239;50.932;3.142;2023-11-18T09:37:08;8.90;99.90
18229;DHT22;9239;50.932;3.142;2023-11-18T09:39:35;8.90;99.90
18229;DHT22;9239;50.932;3.142;2023-11-18T09:42:12;8.90;99.90
18229;DHT22;9239;50.932;3.142;2023-11-18T09:44:45;8.90;99.90
18229;DHT22;9239;50.932;3.142;2023-11-18T09:47:15;8.90;99.90
18229;DHT22;9239;50.932;3.142;2023-11-18T09:49:52;8.90;99.90
18229;DHT22;9239;50.932;3.142;2023-11-18T09:52:22;9.00;99.90
18229;DHT22;9239;50.932;3.142;2023-11-18T09:54:58;9.00;99.90
18229;DHT22;9239;50.932;3.142;2023-11-18T09:57:32;9.00;99.90
18229;DHT22;9239;50.932;3.142;2023-11-18T10:00:03;9.00;99.90
18229;DHT22;9239;50.932;3.142;2023-11-18T10:02:45;9.00;99.90
18229;DHT22;9239;50.932;3.142;2023-11-18T10:05:13;9.00;99.90
18229;DHT22;9239;50.932;3.142;2023-11-18T10:07:46;9.00;99.90
18229;DHT22;9239;50.932;3.142;2023-11-18T10:10:14;9.00;99.90
18229;DHT22;9239;50.932;3.142;2023-11-18T10:12:41;9.00;99.90
18229;DHT22;9239;50.932;3.142;2023-11-18T10:15:14;9.10;99.90
18229;DHT22;9239;50.932;3.142;2023-11-18T10:17:45;9.10;99.90
18229;DHT22;9239;50.932;3.142;2023-11-18T10:20:21;9.00;99.90
18229;DHT22;9239;50.932;3.142;2023-11-18T10:23:05;9.10;99.90
18229;DHT22;9239;50.932;3.142;2023-11-18T10:25:35;9.10;99.90
18229;DHT22;9239;50.932;3.142;2023-11-18T10:28:06;9.10;99.90
18229;DHT22;9239;50.932;3.142;2023-11-18T10:30:44;9.20;99.90
18229;DHT22;9239;50.932;3.142;2023-11-18T10:33:14;9.20;99.90
18229;DHT22;9239;50.932;3.142;2023-11-18T10:35:49;9.20;99.90
18229;DHT22;9239;50.932;3.142;2023-11-18T10:38:16;9.20;99.90
18229;DHT22;9239;50.932;3.142;2023-11-18T10:40:43;9.20;99.90
18229;DHT22;9239;50.932;3.142;2023-11-18T10:43:10;9.20;99.90
18229;DHT22;9239;50.932;3.142;2023-11-18T10:45:37;9.20;99.90
18229;DHT22;9239;50.932;3.142;2023-11-18T10:48:08;9.20;99.90
18229;DHT22;9239;50.932;3.142;2023-11-18T10:50:35;9.20;99.90
18229;DHT22;9239;50.932;3.142;2023-11-18T10:53:02;9.30;99.90
18229;DHT22;9239;50.932;3.142;2023-11-18T10:55:36;9.30;99.90
18229;DHT22;9239;50.932;3.142;2023-11-18T10:58:03;9.30;99.90
18229;DHT22;9239;50.932;3.142;2023-11-18T11:00:46;9.40;99.90
18229;DHT22;9239;50.932;3.142;2023-11-18T11:03:15;9.40;99.90
18229;DHT22;9239;50.932;3.142;2023-11-18T11:05:44;9.40;99.90
18229;DHT22;9239;50.932;3.142;2023-11-18T11:08:14;9.40;99.90
18229;DHT22;9239;50.932;3.142;2023-11-18T11:10:42;9.40;99.90
18229;DHT22;9239;50.932;3.142;2023-11-18T11:13:09;9.40;99.90
18229;DHT22;9239;50.932;3.142;2023-11-18T11:15:41;9.50;99.90
18229;DHT22;9239;50.932;3.142;2023-11-18T11:18:11;9.50;99.90
18229;DHT22;9239;50.932;3.142;2023-11-18T11:20:49;9.50;99.90
18229;DHT22;9239;50.932;3.142;2023-11-18T11:23:21;9.60;99.90
18229;DHT22;9239;50.932;3.142;2023-11-18T11:26:00;9.60;99.90
18229;DHT22;9239;50.932;3.142;2023-11-18T11:28:37;9.60;99.90
18229;DHT22;9239;50.932;3.142;2023-11-18T11:31:12;9.60;99.90
18229;DHT22;9239;50.932;3.142;2023-11-18T11:33:57;9.60;99.90
18229;DHT22;9239;50.932;3.142;2023-11-18T11:36:33;9.60;99.90
18229;DHT22;9239;50.932;3.142;2023-11-18T11:39:02;9.60;99.90
18229;DHT22;9239;50.932;3.142;2023-11-18T11:41:31;9.60;99.90
18229;DHT22;9239;50.932;3.142;2023-11-18T11:44:00;9.70;99.90
18229;DHT22;9239;50.932;3.142;2023-11-18T11:46:28;9.70;99.90
18229;DHT22;9239;50.932;3.142;2023-11-18T11:49:00;9.70;99.90
18229;DHT22;9239;50.932;3.142;2023-11-18T11:51:39;9.70;99.90
18229;DHT22;9239;50.932;3.142;2023-11-18T11:54:17;9.80;99.90
18229;DHT22;9239;50.932;3.142;2023-11-18T11:56:48;9.80;99.90
18229;DHT22;9239;50.932;3.142;2023-11-18T11:59:35;9.80;99.90
18229;DHT22;9239;50.932;3.142;2023-11-18T12:02:03;9.80;99.90
18229;DHT22;9239;50.932;3.142;2023-11-18T12:04:33;9.80;99.90
18229;DHT22;9239;50.932;3.142;2023-11-18T12:07:05;9.80;99.90
18229;DHT22;9239;50.932;3.142;2023-11-18T12:09:32;9.90;99.90
18229;DHT22;9239;50.932;3.142;2023-11-18T12:12:04;9.90;99.90
18229;DHT22;9239;50.932;3.142;2023-11-18T12:14:49;9.90;99.90
18229;DHT22;9239;50.932;3.142;2023-11-18T12:17:16;10.00;99.90
18229;DHT22;9239;50.932;3.142;2023-11-18T12:19:48;10.00;99.90
18229;DHT22;9239;50.932;3.142;2023-11-18T12:22:18;10.00;99.90
18229;DHT22;9239;50.932;3.142;2023-11-18T12:27:58;10.00;99.90
18229;DHT22;9239;50.932;3.142;2023-11-18T12:30:49;10.00;99.90
18229;DHT22;9239;50.932;3.142;2023-11-18T12:33:22;10.00;99.90
18229;DHT22;9239;50.932;3.142;2023-11-18T12:39:17;10.10;99.90
18229;DHT22;9239;50.932;3.142;2023-11-18T12:41:56;10.00;99.90
18229;DHT22;9239;50.932;3.142;2023-11-18T12:44:36;10.10;99.90
18229;DHT22;9239;50.932;3.142;2023-11-18T12:47:05;10.10;99.90
18229;DHT22;9239;50.932;3.142;2023-11-18T12:49:40;10.10;99.90
18229;DHT22;9239;50.932;3.142;2023-11-18T12:52:08;10.20;99.90
18229;DHT22;9239;50.932;3.142;2023-11-18T12:54:36;10.20;99.90
18229;DHT22;9239;50.932;3.142;2023-11-18T12:57:05;10.20;99.90
18229;DHT22;9239;50.932;3.142;2023-11-18T12:59:33;10.20;99.90
18229;DHT22;9239;50.932;3.142;2023-11-18T13:02:00;10.30;99.90
18229;DHT22;9239;50.932;3.142;2023-11-18T13:04:29;10.30;99.90
18229;DHT22;9239;50.932;3.142;2023-11-18T13:06:57;10.30;99.90
18229;DHT22;9239;50.932;3.142;2023-11-18T13:09:26;10.40;99.90
18229;DHT22;9239;50.932;3.142;2023-11-18T13:11:58;10.40;99.90
18229;DHT22;9239;50.932;3.142;2023-11-18T13:14:31;10.40;99.90
18229;DHT22;9239;50.932;3.142;2023-11-18T13:17:02;10.50;99.90
18229;DHT22;9239;50.932;3.142;2023-11-18T13:19:31;10.50;99.90
18229;DHT22;9239;50.932;3.142;2023-11-18T13:22:00;10.50;99.90
18229;DHT22;9239;50.932;3.142;2023-11-18T13:24:29;10.50;99.90
18229;DHT22;9239;50.932;3.142;2023-11-18T13:26:59;10.50;99.90
18229;DHT22;9239;50.932;3.142;2023-11-18T13:29:29;10.50;99.90
18229;DHT22;9239;50.932;3.142;2023-11-18T13:31:56;10.60;99.90
18229;DHT22;9239;50.932;3.142;2023-11-18T13:34:26;10.50;99.90
18229;DHT22;9239;50.932;3.142;2023-11-18T13:36:56;10.60;99.90
18229;DHT22;9239;50.932;3.142;2023-11-18T13:39:22;10.60;99.90
18229;DHT22;9239;50.932;3.142;2023-11-18T13:41:53;10.60;99.90
18229;DHT22;9239;50.932;3.142;2023-11-18T13:44:34;10.70;99.90
18229;DHT22;9239;50.932;3.142;2023-11-18T13:47:01;10.60;99.90
18229;DHT22;9239;50.932;3.142;2023-11-18T13:49:31;10.70;99.90
18229;DHT22;9239;50.932;3.142;2023-11-18T13:51:58;10.60;99.90
18229;DHT22;9239;50.932;3.142;2023-11-18T13:54:27;10.70;99.90
18229;DHT22;9239;50.932;3.142;2023-11-18T13:56:54;10.70;99.90
18229;DHT22;9239;50.932;3.142;2023-11-18T13:59:23;10.80;99.90
18229;DHT22;9239;50.932;3.142;2023-11-18T14:01:53;10.70;99.90
18229;DHT22;9239;50.932;3.142;2023-11-18T14:04:23;10.80;99.90
18229;DHT22;9239;50.932;3.142;2023-11-18T14:06:51;10.80;99.90
18229;DHT22;9239;50.932;3.142;2023-11-18T14:09:19;10.80;99.90
18229;DHT22;9239;50.932;3.142;2023-11-18T14:11:47;10.80;99.90
18229;DHT22;9239;50.932;3.142;2023-11-18T14:14:14;10.80;99.90
18229;DHT22;9239;50.932;3.142;2023-11-18T14:16:43;10.90;99.90
18229;DHT22;9239;50.932;3.142;2023-11-18T14:19:12;10.90;99.90
18229;DHT22;9239;50.932;3.142;2023-11-18T14:21:39;10.90;99.90
18229;DHT22;9239;50.932;3.142;2023-11-18T14:24:08;11.00;99.90
18229;DHT22;9239;50.932;3.142;2023-11-18T14:26:36;11.00;99.90
18229;DHT22;9239;50.932;3.142;2023-11-18T14:29:03;11.00;99.90
18229;DHT22;9239;50.932;3.142;2023-11-18T14:31:30;11.00;99.90
18229;DHT22;9239;50.932;3.142;2023-11-18T14:33:59;11.00;99.90
18229;DHT22;9239;50.932;3.142;2023-11-18T14:36:29;11.10;99.90
18229;DHT22;9239;50.932;3.142;2023-11-18T14:38:58;11.10;99.90
18229;DHT22;9239;50.932;3.142;2023-11-18T14:41:28;11.20;99.90
18229;DHT22;9239;50.932;3.142;2023-11-18T14:43:57;11.20;99.90
18229;DHT22;9239;50.932;3.142;2023-11-18T14:46:26;11.30;99.90
18229;DHT22;9239;50.932;3.142;2023-11-18T14:48:53;11.30;99.90
18229;DHT22;9239;50.932;3.142;2023-11-18T14:51:21;11.30;99.90
18229;DHT22;9239;50.932;3.142;2023-11-18T14:53:49;11.30;99.90
18229;DHT22;9239;50.932;3.142;2023-11-18T14:56:16;11.30;99.90
18229;DHT22;9239;50.932;3.142;2023-11-18T14:58:44;11.30;99.90
18229;DHT22;9239;50.932;3.142;2023-11-18T15:01:14;11.40;99.90
18229;DHT22;9239;50.932;3.142;2023-11-18T15:03:43;11.40;99.90
18229;DHT22;9239;50.932;3.142;2023-11-18T15:06:11;11.50;99.90
18229;DHT22;9239;50.932;3.142;2023-11-18T15:08:38;11.50;99.90
18229;DHT22;9239;50.932;3.142;2023-11-18T15:11:07;11.50;99.90
18229;DHT22;9239;50.932;3.142;2023-11-18T15:13:34;11.50;99.90
18229;DHT22;9239;50.932;3.142;2023-11-18T15:16:03;11.50;99.90
18229;DHT22;9239;50.932;3.142;2023-11-18T15:18:30;11.50;99.90
18229;DHT22;9239;50.932;3.142;2023-11-18T15:20:57;11.60;99.90
18229;DHT22;9239;50.932;3.142;2023-11-18T15:23:26;11.60;99.90
18229;DHT22;9239;50.932;3.142;2023-11-18T15:25:54;11.60;99.90
18229;DHT22;9239;50.932;3.142;2023-11-18T15:28:23;11.60;99.90
18229;DHT22;9239;50.932;3.142;2023-11-18T15:30:50;11.70;99.90
18229;DHT22;9239;50.932;3.142;2023-11-18T15:33:17;11.80;99.90
18229;DHT22;9239;50.932;3.142;2023-11-18T15:35:44;11.80;99.90
18229;DHT22;9239;50.932;3.142;2023-11-18T15:38:13;11.80;99.90
18229;DHT22;9239;50.932;3.142;2023-11-18T15:40:43;11.90;99.90
18229;DHT22;9239;50.932;3.142;2023-11-18T15:43:10;11.90;99.90
18229;DHT22;9239;50.932;3.142;2023-11-18T15:45:39;11.80;99.90
18229;DHT22;9239;50.932;3.142;2023-11-18T15:48:06;11.90;99.90
18229;DHT22;9239;50.932;3.142;2023-11-18T15:50:36;11.90;99.90
18229;DHT22;9239;50.932;3.142;2023-11-18T15:53:03;11.90;99.90
18229;DHT22;9239;50.932;3.142;2023-11-18T15:55:31;11.80;99.90
18229;DHT22;9239;50.932;3.142;2023-11-18T15:57:58;11.90;99.90
18229;DHT22;9239;50.932;3.142;2023-11-18T16:00:27;11.90;99.90
18229;DHT22;9239;50.932;3.142;2023-11-18T16:02:58;11.90;99.90
18229;DHT22;9239;50.932;3.142;2023-11-18T16:05:29;11.90;99.90
18229;DHT22;9239;50.932;3.142;2023-11-18T16:07:59;12.00;99.90
18229;DHT22;9239;50.932;3.142;2023-11-18T16:10:28;12.00;99.90
18229;DHT22;9239;50.932;3.142;2023-11-18T16:12:58;12.10;99.90
18229;DHT22;9239;50.932;3.142;2023-11-18T16:15:29;12.10;99.90